createdAt,value
2022-12-14T00:01:10.123Z,31.27
2022-12-14T00:04:14.457Z,30.80
2022-12-14T00:07:18.686Z,30.13
2022-12-14T00:10:23.078Z,31.38
2022-12-14T00:13:27.147Z,30.83
2022-12-14T00:16:35.117Z,31.30
2022-12-14T00:19:39.451Z,29.70
2022-12-14T00:22:44.148Z,30.20
2022-12-14T00:25:49.011Z,30.17
2022-12-14T00:28:55.856Z,30.27
2022-12-14T00:32:00.793Z,30.13
2022-12-14T00:35:06.254Z,29.17
2022-12-14T00:38:11.028Z,27.83
2022-12-14T00:41:15.418Z,28.48
2022-12-14T00:44:19.940Z,28.15
2022-12-14T00:47:24.742Z,28.05
2022-12-14T00:50:29.337Z,27.38
2022-12-14T00:53:33.702Z,29.73
2022-12-14T00:56:37.719Z,28.35
2022-12-14T00:59:42.041Z,27.95
2022-12-14T01:02:46.699Z,29.05
2022-12-14T01:05:51.694Z,28.17
2022-12-14T01:08:57.909Z,29.83
2022-12-14T01:12:02.336Z,28.55
2022-12-14T01:15:07.193Z,28.00
2022-12-14T01:18:11.706Z,28.55
2022-12-14T01:21:22.878Z,29.10
2022-12-14T01:24:27.177Z,28.17
2022-12-14T01:27:32.070Z,26.67
2022-12-14T01:30:39.871Z,26.83
2022-12-14T01:33:47.493Z,26.40
2022-12-14T01:36:51.861Z,26.40
2022-12-14T01:39:56.299Z,26.48
2022-12-14T01:43:00.804Z,25.77
2022-12-14T01:46:05.048Z,24.30
2022-12-14T01:49:44.499Z,25.35
2022-12-14T01:52:56.558Z,24.90
2022-12-14T01:56:01.091Z,25.88
2022-12-14T01:59:19.068Z,25.30
2022-12-14T02:02:25.031Z,24.98
2022-12-14T02:05:34.274Z,23.98
2022-12-14T02:08:43.337Z,22.80
2022-12-14T02:12:04.505Z,22.88
2022-12-14T02:15:10.387Z,23.52
2022-12-14T02:18:22.801Z,24.95
2022-12-14T02:21:36.857Z,23.10
2022-12-14T02:25:41.637Z,25.10
2022-12-14T02:29:19.554Z,21.73
2022-12-14T02:33:12.599Z,24.40
2022-12-14T02:37:08.619Z,23.02
2022-12-14T02:40:41.189Z,23.60
2022-12-14T02:44:03.788Z,23.45
2022-12-14T02:47:54.362Z,21.65
2022-12-14T02:51:31.515Z,22.90
2022-12-14T02:54:49.928Z,23.40
2022-12-14T02:58:10.855Z,21.23
2022-12-14T03:01:24.553Z,20.52
2022-12-14T03:04:29.420Z,23.92
2022-12-14T03:07:45.029Z,20.85
2022-12-14T03:11:00.656Z,21.52
2022-12-14T03:14:21.095Z,20.50
2022-12-14T03:17:30.424Z,20.77
2022-12-14T03:20:37.487Z,21.15
2022-12-14T03:23:48.730Z,21.00
2022-12-14T03:27:02.762Z,21.55
2022-12-14T03:30:18.420Z,20.98
2022-12-14T03:33:31.363Z,19.73
2022-12-14T03:36:50.430Z,19.58
2022-12-14T03:39:55.119Z,19.67
2022-12-14T03:43:26.682Z,20.27
2022-12-14T03:46:43.527Z,18.92
2022-12-14T03:49:54.583Z,20.13
2022-12-14T03:53:11.074Z,21.73
2022-12-14T03:57:04.126Z,19.23
2022-12-14T04:00:17.552Z,21.23
2022-12-14T04:03:27.946Z,18.80
2022-12-14T04:07:03.953Z,19.92
2022-12-14T04:10:36.265Z,19.67
2022-12-14T04:14:06.245Z,20.10
2022-12-14T04:17:37.811Z,19.15
2022-12-14T04:21:30.906Z,19.50
2022-12-14T04:25:04.627Z,19.30
2022-12-14T04:28:38.372Z,20.30
2022-12-14T04:31:55.124Z,20.20
2022-12-14T04:35:12.341Z,19.40
2022-12-14T04:38:40.213Z,20.17
2022-12-14T04:41:52.027Z,19.40
2022-12-14T04:45:10.709Z,19.63
2022-12-14T04:48:36.719Z,19.33
2022-12-14T04:51:50.629Z,19.38
2022-12-14T04:55:33.025Z,20.23
2022-12-14T04:58:40.081Z,19.77
2022-12-14T05:02:08.454Z,19.08
2022-12-14T05:05:28.169Z,20.40
2022-12-14T05:09:15.293Z,18.73
2022-12-14T05:12:56.778Z,18.58
2022-12-14T05:16:01.312Z,19.52
2022-12-14T05:19:10.180Z,19.23
2022-12-14T05:22:14.763Z,19.08
2022-12-14T05:25:19.276Z,18.27
2022-12-14T05:28:23.560Z,19.02
2022-12-14T05:31:27.792Z,17.88
2022-12-14T05:34:32.491Z,19.10
2022-12-14T05:37:37.004Z,18.52
2022-12-14T05:40:41.390Z,19.30
2022-12-14T05:43:45.691Z,18.60
2022-12-14T05:46:54.012Z,18.23
2022-12-14T05:49:58.461Z,17.98
2022-12-14T05:53:02.649Z,17.13
2022-12-14T05:56:09.834Z,19.50
2022-12-14T05:59:15.833Z,17.80
2022-12-14T06:02:22.336Z,17.50
2022-12-14T06:05:27.140Z,17.88
2022-12-14T06:08:37.592Z,16.73
2022-12-14T06:11:49.845Z,17.33
2022-12-14T06:15:00.344Z,17.60
2022-12-14T06:18:08.748Z,17.52
2022-12-14T06:21:19.063Z,17.40
2022-12-14T06:24:24.734Z,17.65
2022-12-14T06:27:39.511Z,15.60
2022-12-14T06:30:48.184Z,18.20
2022-12-14T06:33:54.609Z,18.00
2022-12-14T06:36:59.010Z,19.23
2022-12-14T06:40:03.341Z,17.85
2022-12-14T06:43:08.306Z,17.65
2022-12-14T06:46:16.127Z,16.42
2022-12-14T06:49:20.369Z,18.10
2022-12-14T06:52:26.944Z,17.13
2022-12-14T06:55:33.201Z,16.88
2022-12-14T06:58:37.534Z,16.27
2022-12-14T07:01:42.463Z,16.38
2022-12-14T07:04:46.923Z,15.40
2022-12-14T07:07:51.391Z,14.07
2022-12-14T07:11:01.979Z,16.08
2022-12-14T07:14:07.345Z,15.65
2022-12-14T07:17:12.085Z,15.85
2022-12-14T07:20:16.830Z,14.90
2022-12-14T07:23:27.579Z,15.73
2022-12-14T07:26:32.488Z,14.15
2022-12-14T07:29:36.865Z,14.90
2022-12-14T07:32:41.276Z,15.88
2022-12-14T07:35:45.637Z,14.53
2022-12-14T07:38:51.533Z,15.25
2022-12-14T07:41:56.233Z,14.50
2022-12-14T07:45:01.492Z,14.40
2022-12-14T07:48:07.404Z,16.27
2022-12-14T07:51:15.337Z,15.85
2022-12-14T07:54:19.638Z,15.10
2022-12-14T07:57:23.951Z,14.82
2022-12-14T08:00:28.302Z,14.20
2022-12-14T08:03:32.863Z,15.30
2022-12-14T08:06:39.363Z,13.88
2022-12-14T08:09:43.604Z,14.38
2022-12-14T08:12:50.369Z,14.38
2022-12-14T08:15:55.301Z,13.75
2022-12-14T08:19:00.650Z,16.35
2022-12-14T08:22:05.088Z,13.77
2022-12-14T08:25:09.751Z,15.52
2022-12-14T08:28:14.559Z,13.40
2022-12-14T08:31:22.636Z,15.43
2022-12-14T08:34:26.908Z,14.80
2022-12-14T08:37:31.187Z,14.70
2022-12-14T08:40:36.514Z,15.63
2022-12-14T08:43:41.604Z,15.13
2022-12-14T08:46:45.996Z,15.13
2022-12-14T08:49:50.247Z,14.63
2022-12-14T08:52:55.096Z,15.80
2022-12-14T08:56:04.792Z,16.15
2022-12-14T08:59:15.961Z,14.93
2022-12-14T09:02:33.590Z,15.30
2022-12-14T09:05:38.607Z,15.02
2022-12-14T09:08:43.089Z,14.77
2022-12-14T09:11:47.482Z,16.05
2022-12-14T09:14:52.053Z,14.32
2022-12-14T09:17:56.192Z,13.50
2022-12-14T09:21:00.849Z,13.88
2022-12-14T09:24:06.597Z,14.50
2022-12-14T09:27:11.568Z,12.38
2022-12-14T09:30:19.337Z,14.35
2022-12-14T09:33:29.440Z,13.60
2022-12-14T09:36:38.021Z,13.25
2022-12-14T09:39:42.548Z,13.75
2022-12-14T09:43:04.169Z,13.32
2022-12-14T09:46:27.147Z,14.75
2022-12-14T09:49:54.211Z,12.68
2022-12-14T09:53:07.281Z,12.52
2022-12-14T09:56:20.479Z,12.65
2022-12-14T09:59:29.496Z,11.60
2022-12-14T10:03:19.665Z,11.85
2022-12-14T10:06:38.270Z,11.75
2022-12-14T10:10:19.682Z,11.13
2022-12-14T10:14:06.596Z,10.27
2022-12-14T10:18:05.405Z,10.68
2022-12-14T10:21:17.058Z,10.40
2022-12-14T10:24:37.120Z,9.65
2022-12-14T10:28:09.700Z,9.85
2022-12-14T10:32:04.287Z,11.93
2022-12-14T10:35:17.389Z,10.15
2022-12-14T10:43:06.831Z,8.68
2022-12-14T10:47:02.335Z,8.00
2022-12-14T10:50:49.740Z,10.27
2022-12-14T10:54:32.591Z,12.13
2022-12-14T10:58:00.071Z,12.15
2022-12-14T11:01:18.825Z,11.02
2022-12-14T11:05:13.235Z,15.18
2022-12-14T11:09:01.081Z,25.30
2022-12-14T11:21:34.533Z,17.48
2022-12-14T11:29:44.356Z,19.05
2022-12-14T11:33:13.949Z,11.73
2022-12-14T11:36:38.754Z,11.77
2022-12-14T11:39:43.419Z,9.77
2022-12-14T11:42:50.873Z,10.40
2022-12-14T11:45:58.854Z,10.38
2022-12-14T11:49:38.997Z,11.20
2022-12-14T11:52:43.885Z,11.18
2022-12-14T11:55:58.866Z,10.45
2022-12-14T11:59:19.676Z,11.05
2022-12-14T12:02:52.857Z,9.00
2022-12-14T12:06:18.863Z,8.45
2022-12-14T12:09:38.586Z,8.45
2022-12-14T12:13:01.110Z,10.35
2022-12-14T12:16:24.948Z,9.02
2022-12-14T12:19:54.007Z,8.82
2022-12-14T12:23:30.538Z,8.18
2022-12-14T12:30:48.363Z,8.07
2022-12-14T12:34:07.474Z,7.60
2022-12-14T12:37:26.868Z,7.68
2022-12-14T12:41:01.806Z,7.80
2022-12-14T12:44:43.244Z,7.85
2022-12-14T12:48:30.169Z,7.45
2022-12-14T12:52:00.162Z,8.20
2022-12-14T12:55:17.606Z,9.07
2022-12-14T12:58:34.398Z,9.05
2022-12-14T13:01:47.075Z,9.20
2022-12-14T13:04:53.791Z,11.13
2022-12-14T13:08:15.934Z,9.55
2022-12-14T13:11:37.540Z,9.68
2022-12-14T13:14:50.134Z,9.88
2022-12-14T13:18:56.451Z,10.02
2022-12-14T13:21:54.591Z,10.10
2022-12-14T13:25:16.232Z,8.48
2022-12-14T13:29:09.307Z,8.65
2022-12-14T13:32:45.071Z,8.32
2022-12-14T13:36:26.505Z,10.27
2022-12-14T13:40:18.791Z,10.27
2022-12-14T13:43:58.691Z,10.10
2022-12-14T13:47:36.126Z,10.80
2022-12-14T13:51:09.147Z,10.70
2022-12-14T13:54:40.217Z,10.55
2022-12-14T14:02:35.648Z,9.68
2022-12-14T14:05:49.171Z,8.37
2022-12-14T14:08:54.302Z,10.10
2022-12-14T14:12:41.770Z,10.55
2022-12-14T14:16:26.845Z,9.95
2022-12-14T15:50:43.579Z,17.92
2022-12-14T16:16:40.809Z,17.52
2022-12-14T16:21:30.603Z,18.08
2022-12-14T16:26:06.127Z,17.98
2022-12-14T17:06:31.312Z,13.75
2022-12-14T17:09:44.252Z,14.73
2022-12-14T17:13:02.196Z,10.18
2022-12-14T17:16:21.149Z,13.65
2022-12-14T17:19:41.475Z,15.35
2022-12-14T17:23:35.801Z,15.63
2022-12-14T17:27:04.739Z,16.20
2022-12-14T17:30:22.399Z,15.13
2022-12-14T17:36:44.351Z,11.10
2022-12-14T17:39:53.864Z,13.95
2022-12-14T17:43:04.252Z,14.30
2022-12-14T17:46:41.155Z,15.07
2022-12-14T17:57:51.825Z,14.30
2022-12-14T18:01:42.353Z,15.43
2022-12-14T18:05:31.857Z,19.38
2022-12-14T18:08:47.237Z,16.08
2022-12-14T18:12:23.211Z,17.20
2022-12-14T18:15:40.687Z,16.23
2022-12-14T18:18:50.192Z,18.00
2022-12-14T18:22:05.682Z,16.95
2022-12-14T18:26:17.402Z,18.10
2022-12-14T18:29:22.345Z,15.55
2022-12-14T18:33:55.302Z,15.35
2022-12-14T18:37:42.748Z,16.38
2022-12-14T18:53:58.380Z,15.75
2022-12-14T19:02:26.376Z,14.68
2022-12-14T19:05:36.866Z,16.63
2022-12-14T19:09:24.582Z,15.65
2022-12-14T19:13:19.143Z,14.65
2022-12-14T20:47:28.545Z,13.95
2022-12-14T21:00:52.703Z,15.67
2022-12-14T21:05:43.577Z,18.73
2022-12-14T21:19:04.489Z,16.58
2022-12-14T21:22:51.210Z,15.65
2022-12-14T22:04:25.952Z,17.77
2022-12-14T22:12:43.311Z,16.58
2022-12-14T22:16:07.664Z,17.95
2022-12-14T22:19:19.703Z,16.90
2022-12-14T22:22:49.736Z,16.77
2022-12-14T22:26:38.173Z,16.98
2022-12-14T22:30:15.088Z,17.13
2022-12-14T22:33:52.204Z,17.65
2022-12-14T22:41:42.941Z,16.95
2022-12-14T22:48:57.958Z,17.75
2022-12-14T22:52:25.067Z,18.00
2022-12-14T23:04:11.074Z,19.15
2022-12-14T23:07:32.938Z,19.05
2022-12-14T23:11:05.914Z,18.98
2022-12-14T23:14:39.400Z,19.05
2022-12-14T23:18:08.123Z,18.15
2022-12-14T23:21:41.320Z,18.17
2022-12-14T23:25:06.954Z,18.85
2022-12-14T23:28:57.845Z,18.70
2022-12-14T23:32:26.462Z,20.23
2022-12-14T23:36:05.471Z,19.58
2022-12-14T23:39:31.535Z,19.15
2022-12-14T23:43:08.409Z,21.08
2022-12-14T23:46:37.626Z,19.63
2022-12-14T23:50:32.529Z,19.88
2022-12-14T23:55:02.093Z,19.45
2022-12-14T23:59:13.776Z,12.77
